Track Ехтанигов Темир

Time Latitude Longitude Accuracy (66% radius in meters) Altitude (meters) Speed (km/hour) Bearing (degrees) Battery (%) GPS flag
07:05:08 57.203657 60.118718 0 0 0 0 1 delete
07:05:07 57.203654 60.118714 0 0 0 0 1 delete
07:05:06 57.203653 60.118712 0 0 0 0 1 delete
07:05:05 57.203653 60.118715 0 0 0 0 1 delete
07:05:04 57.203654 60.118721 0 0 0 0 1 delete
07:05:03 57.203655 60.118732 0 0 0 0 1 delete
07:05:02 57.203657 60.118739 0 0 0 0 1 delete
07:05:01 57.203657 60.118744 0 0 0 0 1 delete
07:05:00 57.203657 60.118740 0 0 0 0 1 delete
07:04:59 57.203655 60.118736 0 0 0 0 1 delete
07:04:58 57.203652 60.118730 0 0 0 0 1 delete
07:04:57 57.203651 60.118724 0 0 0 0 1 delete
07:04:56 57.203649 60.118717 0 0 0 0 1 delete
07:04:55 57.203648 60.118713 0 0 0 0 1 delete
07:04:54 57.203647 60.118713 0 0 0 0 1 delete
07:04:53 57.203646 60.118715 0 0 0 0 1 delete
07:04:52 57.203646 60.118715 0 0 0 0 1 delete
07:04:51 57.203646 60.118716 0 0 0 0 1 delete
07:04:50 57.203645 60.118715 0 0 0 0 1 delete
07:04:49 57.203645 60.118715 0 0 0 0 1 delete
07:04:48 57.203642 60.118713 0 0 0 0 1 delete
07:04:47 57.203641 60.118712 0 0 0 0 1 delete
07:04:46 57.203638 60.118709 0 0 0 0 1 delete
07:04:45 57.203637 60.118703 0 0 0 0 1 delete
07:04:44 57.203637 60.118695 0 0 0 0 1 delete
07:04:43 57.203640 60.118682 0 0 0 0 1 delete
07:04:42 57.203644 60.118673 0 0 0 0 1 delete
07:04:41 57.203646 60.118669 0 0 0 0 1 delete
07:04:40 57.203647 60.118671 0 0 0 0 1 delete
07:04:39 57.203648 60.118672 0 0 0 0 1 delete
07:04:38 57.203649 60.118670 0 0 0 0 1 delete
07:04:37 57.203651 60.118660 0 0 0 0 1 delete
07:04:36 57.203654 60.118638 0 0 0 0 1 delete
07:04:35 57.203661 60.118600 0 0 0 0 1 delete
07:04:34 57.203669 60.118557 0 0 0 0 1 delete
07:04:33 57.203681 60.118512 0 0 0 0 1 delete
07:04:32 57.203693 60.118474 0 0 0 0 1 delete
07:04:31 57.203704 60.118439 0 0 0 0 1 delete
07:04:30 57.203714 60.118408 0 0 0 0 1 delete
07:04:29 57.203725 60.118378 0 0 0 0 1 delete
07:04:28 57.203736 60.118348 0 0 0 0 1 delete
07:04:27 57.203747 60.118318 0 0 0 0 1 delete
07:04:26 57.203758 60.118287 0 0 0 0 1 delete
07:04:25 57.203768 60.118257 0 0 0 0 1 delete
07:04:24 57.203777 60.118224 0 0 0 0 1 delete
07:04:23 57.203786 60.118188 0 0 0 0 1 delete
07:04:22 57.203793 60.118148 0 0 0 0 1 delete
07:04:21 57.203798 60.118107 0 0 0 0 1 delete
07:04:20 57.203803 60.118064 0 0 0 0 1 delete
07:04:19 57.203806 60.118019 0 0 0 0 1 delete